Time;durP1;ratioP1;P1;durP2;ratioP2;P2;SDS_P1;SDS_P2;PMS_P1;PMS_P2;Temp;Humidity;BMP_temperature;BMP_pressure;BME280_temperature;BME280_humidity;BME280_pressure;Samples;Min_cycle;Max_cycle;Signal;HPM_P1;HPM_P2
2023/09/15 00:00:52;;;;;;;17.67;9.40;;;17.40;79.10;;;;;;4866354;29;20045;-90
2023/09/15 00:03:20;;;;;;;16.50;9.15;;;17.40;79.10;;;;;;4872032;29;20523;-90
2023/09/15 00:05:47;;;;;;;19.67;10.10;;;17.40;79.10;;;;;;4853238;29;20075;-90
2023/09/15 00:08:14;;;;;;;21.90;10.30;;;17.50;79.10;;;;;;4855633;29;20083;-90
2023/09/15 00:10:41;;;;;;;21.93;10.13;;;17.40;79.10;;;;;;4859279;29;20525;-90
2023/09/15 00:13:08;;;;;;;19.05;9.85;;;17.40;79.40;;;;;;4875383;29;20048;-90
2023/09/15 00:15:35;;;;;;;19.98;10.68;;;17.30;79.50;;;;;;4869192;29;20117;-89
2023/09/15 00:18:03;;;;;;;15.18;8.15;;;17.30;79.50;;;;;;4852685;29;20583;-90
2023/09/15 00:20:30;;;;;;;18.45;9.85;;;17.30;79.50;;;;;;4870628;29;20495;-90
2023/09/15 00:22:59;;;;;;;15.17;9.20;;;17.40;79.40;;;;;;4851090;29;20045;-89
2023/09/15 00:25:30;;;;;;;17.80;9.55;;;17.30;79.30;;;;;;4860253;29;20063;-90
2023/09/15 00:27:59;;;;;;;16.60;9.15;;;17.30;79.00;;;;;;4868598;29;20052;-90
2023/09/15 00:30:28;;;;;;;18.17;9.93;;;17.20;78.90;;;;;;4861939;29;20542;-90
2023/09/15 00:32:56;;;;;;;17.60;9.60;;;17.20;78.80;;;;;;4871255;29;20051;-89
2023/09/15 00:35:28;;;;;;;15.53;8.20;;;17.20;78.80;;;;;;4853985;29;20057;-89
2023/09/15 00:37:55;;;;;;;17.30;8.73;;;17.10;78.70;;;;;;4872164;29;20160;-90
2023/09/15 00:40:23;;;;;;;17.42;9.40;;;17.10;78.40;;;;;;4874368;29;20048;-89
2023/09/15 00:42:52;;;;;;;16.60;9.10;;;17.00;78.50;;;;;;4852916;29;20050;-90
2023/09/15 00:45:21;;;;;;;16.77;8.80;;;16.90;78.50;;;;;;4869881;29;20045;-90
2023/09/15 00:47:52;;;;;;;16.23;8.50;;;16.80;78.70;;;;;;4863023;29;20045;-89
2023/09/15 00:50:25;;;;;;;14.65;8.52;;;16.70;78.70;;;;;;4855880;29;20053;-90
2023/09/15 00:52:57;;;;;;;18.40;8.90;;;16.60;78.50;;;;;;4867530;29;20412;-89
2023/09/15 00:55:25;;;;;;;18.77;10.05;;;16.50;78.60;;;;;;4852145;29;20053;-89
2023/09/15 00:57:54;;;;;;;19.10;9.95;;;16.50;78.80;;;;;;4875477;29;20097;-90
2023/09/15 01:00:22;;;;;;;21.43;9.63;;;16.50;78.90;;;;;;4868707;29;20049;-90
2023/09/15 01:02:50;;;;;;;16.08;8.90;;;16.50;78.90;;;;;;4858883;29;20053;-90
2023/09/15 01:05:22;;;;;;;15.10;8.57;;;16.50;78.90;;;;;;4876552;29;20053;-90
2023/09/15 01:07:53;;;;;;;16.27;8.68;;;16.50;78.90;;;;;;4872459;29;20143;-89
2023/09/15 01:10:24;;;;;;;15.82;8.25;;;16.50;78.70;;;;;;4872759;29;20499;-90
2023/09/15 01:12:53;;;;;;;19.27;10.00;;;16.50;78.60;;;;;;4858355;29;20076;-89
2023/09/15 01:15:45;;;;;;;15.95;8.30;;;16.40;78.60;;;;;;4874706;29;20120;-90
2023/09/15 01:18:38;;;;;;;16.10;8.93;;;16.30;78.60;;;;;;4858313;29;20131;-90
2023/09/15 01:21:40;;;;;;;16.08;9.57;;;16.30;78.30;;;;;;4879290;29;20525;-90
2023/09/15 01:24:19;;;;;;;20.70;9.75;;;16.20;78.60;;;;;;4877789;29;20045;-91
2023/09/15 01:27:05;;;;;;;18.83;9.07;;;16.10;78.70;;;;;;4874455;29;20040;-91
2023/09/15 01:29:47;;;;;;;18.60;10.38;;;16.10;78.50;;;;;;4864472;29;20439;-90
2023/09/15 01:32:16;;;;;;;17.02;9.93;;;16.00;78.80;;;;;;4873246;29;20079;-91
2023/09/15 01:34:48;;;;;;;18.05;9.48;;;16.00;79.40;;;;;;4877960;29;20048;-90
2023/09/15 01:37:17;;;;;;;18.88;9.60;;;15.90;79.30;;;;;;4880100;29;20053;-91
2023/09/15 01:39:44;;;;;;;18.07;10.37;;;15.90;79.10;;;;;;4860386;29;20104;-90
2023/09/15 01:42:12;;;;;;;19.77;11.45;;;15.90;79.40;;;;;;4867353;29;20481;-90
2023/09/15 01:44:39;;;;;;;19.10;10.23;;;16.00;79.90;;;;;;4878692;29;20492;-90
2023/09/15 01:47:14;;;;;;;23.83;11.60;;;16.00;80.00;;;;;;4875394;29;20135;-90
2023/09/15 01:49:41;;;;;;;20.83;10.80;;;16.00;79.90;;;;;;4874956;29;20101;-89
2023/09/15 01:52:09;;;;;;;21.20;10.47;;;16.10;79.90;;;;;;4872109;29;20045;-90
2023/09/15 01:54:36;;;;;;;20.70;11.27;;;16.10;80.00;;;;;;4874911;29;20052;-90
2023/09/15 01:57:04;;;;;;;22.35;11.52;;;16.10;80.20;;;;;;4856402;29;20041;-89
2023/09/15 01:59:32;;;;;;;20.15;11.07;;;16.10;80.40;;;;;;4889806;29;20558;-90
2023/09/15 02:01:59;;;;;;;19.63;10.52;;;16.10;80.70;;;;;;4879396;29;20041;-90
2023/09/15 02:04:27;;;;;;;24.67;11.93;;;16.20;80.70;;;;;;4881239;29;20064;-90
2023/09/15 02:06:54;;;;;;;19.30;10.68;;;16.20;80.80;;;;;;4880855;29;20083;-90
2023/09/15 02:09:21;;;;;;;21.27;11.60;;;16.30;80.80;;;;;;4879713;29;20049;-89
2023/09/15 02:11:48;;;;;;;18.60;10.50;;;16.30;80.80;;;;;;4869745;29;20052;-90
2023/09/15 02:14:15;;;;;;;23.60;11.93;;;16.40;80.90;;;;;;4857027;29;20069;-90
2023/09/15 02:16:42;;;;;;;19.83;10.33;;;16.30;81.30;;;;;;4876500;29;20069;-90
2023/09/15 02:19:10;;;;;;;24.08;12.13;;;16.30;81.60;;;;;;4869429;29;20447;-89
2023/09/15 02:21:37;;;;;;;21.55;11.90;;;16.30;81.40;;;;;;4861401;29;20041;-90
2023/09/15 02:24:05;;;;;;;21.15;11.13;;;16.30;81.40;;;;;;4861494;29;20045;-89
2023/09/15 02:26:32;;;;;;;23.17;11.85;;;16.20;81.40;;;;;;4858324;29;20052;-89
2023/09/15 02:28:59;;;;;;;21.70;11.40;;;16.30;81.20;;;;;;4873542;29;20104;-88
2023/09/15 02:31:30;;;;;;;21.55;11.60;;;16.30;81.10;;;;;;4873075;29;20051;-89
2023/09/15 02:33:59;;;;;;;24.52;13.02;;;16.40;81.10;;;;;;4869038;29;20553;-88
2023/09/15 02:36:27;;;;;;;22.77;11.93;;;16.40;81.50;;;;;;4879594;29;20051;-88
2023/09/15 02:38:54;;;;;;;23.52;11.85;;;16.40;81.60;;;;;;4876039;29;20041;-89
2023/09/15 02:41:22;;;;;;;18.93;11.20;;;16.30;81.70;;;;;;4881181;29;20462;-90
2023/09/15 02:43:49;;;;;;;21.15;12.00;;;16.30;81.70;;;;;;4882386;29;20067;-89
2023/09/15 02:46:16;;;;;;;21.02;10.57;;;16.20;81.50;;;;;;4860174;29;20041;-89
2023/09/15 02:48:43;;;;;;;19.25;10.52;;;16.10;81.40;;;;;;4869714;29;20147;-89
2023/09/15 02:51:11;;;;;;;21.55;11.18;;;16.10;81.30;;;;;;4869533;29;20078;-89
2023/09/15 02:53:40;;;;;;;21.40;11.67;;;16.10;81.30;;;;;;4869620;29;20079;-89
2023/09/15 02:56:08;;;;;;;24.25;11.32;;;16.00;81.20;;;;;;4875366;29;20053;-90
2023/09/15 02:58:36;;;;;;;22.60;10.63;;;16.00;81.00;;;;;;4871330;29;21566;-90
2023/09/15 03:01:12;;;;;;;21.23;11.45;;;16.00;80.90;;;;;;4851917;29;20534;-89
2023/09/15 03:03:42;;;;;;;21.10;11.27;;;16.00;81.10;;;;;;4871297;29;20534;-89
2023/09/15 03:06:11;;;;;;;18.57;10.70;;;16.00;80.70;;;;;;4873616;29;20049;-89
2023/09/15 03:08:38;;;;;;;18.65;9.63;;;16.00;80.50;;;;;;4884151;29;20140;-89
2023/09/15 03:11:11;;;;;;;19.30;10.23;;;16.00;80.30;;;;;;4884121;29;20506;-91
2023/09/15 03:13:38;;;;;;;21.85;10.13;;;16.00;80.20;;;;;;4880241;29;20095;-90
2023/09/15 03:16:12;;;;;;;18.15;10.20;;;15.90;80.00;;;;;;4902839;29;20063;-91
2023/09/15 03:18:42;;;;;;;22.47;10.97;;;15.90;79.90;;;;;;4903178;29;20051;-91
2023/09/15 03:21:10;;;;;;;21.05;11.10;;;15.90;79.80;;;;;;4878776;29;20093;-90
2023/09/15 03:23:41;;;;;;;22.33;11.43;;;15.80;79.80;;;;;;4855699;29;20049;-90
2023/09/15 03:26:08;;;;;;;19.08;10.10;;;15.80;79.60;;;;;;4868517;29;20056;-90
2023/09/15 03:28:38;;;;;;;22.75;12.02;;;15.70;79.10;;;;;;4869198;29;20076;-91
2023/09/15 03:31:05;;;;;;;22.23;11.97;;;15.70;79.80;;;;;;4866265;29;20052;-91
2023/09/15 03:33:32;;;;;;;21.25;10.88;;;15.70;79.90;;;;;;4850232;29;20060;-92
2023/09/15 03:36:00;;;;;;;27.77;13.30;;;15.60;80.00;;;;;;4850445;29;20049;-90
2023/09/15 03:38:27;;;;;;;20.55;10.93;;;15.60;79.90;;;;;;4854421;29;20040;-90
2023/09/15 03:40:56;;;;;;;19.95;10.13;;;15.60;80.30;;;;;;4869118;29;20143;-91
2023/09/15 03:43:28;;;;;;;18.50;10.10;;;15.60;80.10;;;;;;4869153;29;20041;-90
2023/09/15 03:45:58;;;;;;;20.42;10.90;;;15.60;79.60;;;;;;4875206;29;20068;-90
2023/09/15 03:48:26;;;;;;;18.58;9.85;;;15.50;79.70;;;;;;4850259;29;20110;-90
2023/09/15 03:50:55;;;;;;;21.00;10.63;;;15.60;79.40;;;;;;4850182;29;20120;-91
2023/09/15 03:53:22;;;;;;;15.77;8.70;;;15.60;79.40;;;;;;4880372;29;20048;-89
2023/09/15 03:55:49;;;;;;;18.67;9.90;;;15.50;79.10;;;;;;4864435;29;20051;-89
2023/09/15 03:58:16;;;;;;;17.38;10.10;;;15.50;78.70;;;;;;4877360;29;20054;-90
2023/09/15 04:00:44;;;;;;;19.13;10.75;;;15.50;79.10;;;;;;4873509;29;20049;-89
2023/09/15 04:03:11;;;;;;;20.40;10.38;;;15.50;79.40;;;;;;4876227;29;20136;-89
2023/09/15 04:05:38;;;;;;;19.73;10.90;;;15.50;79.40;;;;;;4859120;29;20127;-89
2023/09/15 04:08:05;;;;;;;23.20;11.83;;;15.50;79.70;;;;;;4876066;29;20052;-89
2023/09/15 04:10:33;;;;;;;21.05;11.15;;;15.50;80.00;;;;;;4874782;29;20056;-89
2023/09/15 04:13:00;;;;;;;16.92;10.18;;;15.50;80.10;;;;;;4877051;29;20448;-89
2023/09/15 04:15:27;;;;;;;22.23;11.02;;;15.50;79.90;;;;;;4857363;29;20144;-89
2023/09/15 04:17:55;;;;;;;19.98;11.18;;;15.50;79.90;;;;;;4874852;29;20045;-89
2023/09/15 04:20:24;;;;;;;24.03;11.47;;;15.50;80.00;;;;;;4861405;29;20136;-89
2023/09/15 04:23:05;;;;;;;23.52;11.90;;;15.50;79.90;;;;;;4872900;29;20502;-89
2023/09/15 04:25:33;;;;;;;23.48;12.32;;;15.50;79.90;;;;;;4872570;29;20055;-89
2023/09/15 04:28:00;;;;;;;25.42;12.88;;;15.50;80.20;;;;;;4870055;29;20131;-89
2023/09/15 04:30:27;;;;;;;21.63;12.27;;;15.50;80.40;;;;;;4870589;29;20067;-89
2023/09/15 04:32:55;;;;;;;23.27;11.43;;;15.50;81.00;;;;;;4872642;29;20048;-89
2023/09/15 04:35:23;;;;;;;25.30;13.90;;;15.60;81.20;;;;;;4871197;29;20100;-88
2023/09/15 04:37:50;;;;;;;22.63;12.48;;;15.60;81.20;;;;;;4857323;29;20052;-88
2023/09/15 04:40:17;;;;;;;23.48;12.38;;;15.60;81.30;;;;;;4862267;29;20047;-88
2023/09/15 04:42:45;;;;;;;26.08;13.48;;;15.70;81.40;;;;;;4870039;29;20395;-88
2023/09/15 04:45:12;;;;;;;26.27;13.27;;;15.60;81.60;;;;;;4877247;29;20045;-88
2023/09/15 04:47:40;;;;;;;28.02;13.70;;;15.60;81.70;;;;;;4877089;29;20100;-89
2023/09/15 04:50:28;;;;;;;27.92;14.15;;;15.60;81.90;;;;;;4887030;29;20040;-93
2023/09/15 04:52:55;;;;;;;29.13;13.80;;;15.60;82.00;;;;;;4898452;29;20478;-93
2023/09/15 04:55:23;;;;;;;25.77;13.20;;;15.60;81.90;;;;;;4898408;29;20055;-93
2023/09/15 04:57:50;;;;;;;27.63;14.93;;;15.60;81.80;;;;;;4898377;29;20079;-92
2023/09/15 05:00:23;;;;;;;25.60;13.50;;;15.60;82.00;;;;;;4898472;29;20503;-91
2023/09/15 05:02:56;;;;;;;28.52;14.82;;;15.50;82.00;;;;;;4894098;29;20132;-94
2023/09/15 05:05:28;;;;;;;22.38;12.45;;;15.50;82.00;;;;;;4882932;29;20051;-93
2023/09/15 05:07:59;;;;;;;31.17;14.65;;;15.60;81.90;;;;;;4882995;29;20079;-93
2023/09/15 05:10:28;;;;;;;31.90;16.03;;;15.60;82.00;;;;;;4882939;29;20055;-94
2023/09/15 05:12:55;;;;;;;30.98;15.55;;;15.60;82.30;;;;;;4867553;29;20573;-95
2023/09/15 05:15:25;;;;;;;33.83;15.65;;;15.60;82.50;;;;;;4868072;29;20056;-95
2023/09/15 05:17:52;;;;;;;29.60;15.20;;;15.50;82.60;;;;;;4869028;29;20048;-95
2023/09/15 05:20:19;;;;;;;26.52;13.75;;;15.50;82.90;;;;;;4886402;29;20143;-94
2023/09/15 05:22:47;;;;;;;25.83;13.23;;;15.60;83.00;;;;;;4884334;29;20079;-95
2023/09/15 05:25:15;;;;;;;26.25;13.93;;;15.70;82.70;;;;;;4883520;29;20056;-95
2023/09/15 05:27:42;;;;;;;30.17;14.77;;;15.70;82.40;;;;;;4883509;29;20407;-94
2023/09/15 05:30:10;;;;;;;27.13;13.98;;;15.90;82.50;;;;;;4868607;29;20052;-95
2023/09/15 05:32:41;;;;;;;30.42;15.85;;;15.90;82.50;;;;;;4886338;29;20053;-96
2023/09/15 05:35:13;;;;;;;28.17;14.63;;;15.90;82.50;;;;;;4871991;29;20093;-93
2023/09/15 05:37:40;;;;;;;35.80;18.17;;;16.00;82.60;;;;;;4870880;29;20044;-93
2023/09/15 05:40:08;;;;;;;34.78;18.15;;;16.00;82.50;;;;;;4870681;29;20416;-93
2023/09/15 05:42:36;;;;;;;38.42;20.48;;;16.00;82.30;;;;;;4884789;29;20045;-94
2023/09/15 05:45:03;;;;;;;38.85;18.65;;;16.00;82.60;;;;;;4873073;29;20057;-94
2023/09/15 05:47:31;;;;;;;38.27;19.27;;;16.00;82.70;;;;;;4869468;29;20415;-92
2023/09/15 05:50:00;;;;;;;35.45;17.35;;;16.00;82.80;;;;;;4862782;29;20052;-90
2023/09/15 05:52:46;;;;;;;29.65;16.63;;;16.00;83.00;;;;;;4883845;29;20147;-90
2023/09/15 05:55:13;;;;;;;32.38;16.10;;;16.00;83.10;;;;;;4875841;29;20059;-91
2023/09/15 05:57:41;;;;;;;36.50;18.42;;;16.00;83.30;;;;;;4877949;29;20139;-91
2023/09/15 06:00:08;;;;;;;34.17;17.07;;;16.10;83.40;;;;;;4876860;29;20059;-89
2023/09/15 06:02:38;;;;;;;33.88;18.13;;;16.20;83.60;;;;;;4882316;29;20045;-89
2023/09/15 06:05:17;;;;;;;41.40;19.85;;;16.20;83.50;;;;;;4875687;29;20127;-90
2023/09/15 06:07:45;;;;;;;45.38;21.75;;;16.30;83.50;;;;;;4889029;29;20416;-89
2023/09/15 06:10:12;;;;;;;48.30;23.95;;;16.30;83.80;;;;;;4866808;29;20053;-90
2023/09/15 06:12:39;;;;;;;55.63;27.73;;;16.40;83.40;;;;;;4878886;29;20067;-88
2023/09/15 06:15:06;;;;;;;55.28;29.38;;;16.50;83.10;;;;;;4873917;29;20045;-87
2023/09/15 06:17:34;;;;;;;46.97;25.08;;;16.40;82.80;;;;;;4866379;29;20468;-89
2023/09/15 06:20:01;;;;;;;49.05;24.85;;;16.40;82.70;;;;;;4852882;29;20053;-91
2023/09/15 06:22:28;;;;;;;43.33;22.67;;;16.50;82.60;;;;;;4902469;29;20555;-94
2023/09/15 06:24:55;;;;;;;41.50;20.70;;;16.60;83.00;;;;;;4886597;29;20104;-90
2023/09/15 06:27:22;;;;;;;43.47;21.15;;;16.60;82.80;;;;;;4901783;29;20047;-89
2023/09/15 06:29:51;;;;;;;43.72;21.80;;;16.70;82.40;;;;;;4901114;29;20060;-93
2023/09/15 06:32:20;;;;;;;40.67;21.35;;;16.70;82.40;;;;;;4886301;29;20100;-92
2023/09/15 06:34:50;;;;;;;37.75;20.08;;;16.80;81.90;;;;;;4887677;29;20048;-95
2023/09/15 06:37:20;;;;;;;45.77;20.90;;;16.90;81.60;;;;;;4902036;29;20048;-96
2023/09/15 06:39:48;;;;;;;39.20;20.23;;;16.90;81.90;;;;;;4887678;29;20049;-94
2023/09/15 06:42:17;;;;;;;40.30;20.52;;;16.90;81.40;;;;;;4901485;29;20049;-95
2023/09/15 06:44:45;;;;;;;38.25;21.13;;;16.90;81.40;;;;;;4900981;29;20427;-95
2023/09/15 06:47:14;;;;;;;42.00;21.20;;;17.00;81.50;;;;;;4885999;29;20053;-94
2023/09/15 06:49:42;;;;;;;50.20;28.27;;;17.00;81.30;;;;;;4901875;29;20080;-94
2023/09/15 06:52:09;;;;;;;48.35;23.88;;;17.00;81.30;;;;;;4885548;29;20120;-94
2023/09/15 06:54:36;;;;;;;43.55;20.83;;;17.00;81.50;;;;;;4901127;29;20052;-95
2023/09/15 06:57:04;;;;;;;38.90;20.00;;;17.10;81.00;;;;;;4900977;29;20514;-94
2023/09/15 06:59:34;;;;;;;47.28;20.65;;;17.00;80.90;;;;;;4900276;29;20050;-94
2023/09/15 07:02:02;;;;;;;43.20;20.50;;;17.10;81.10;;;;;;4876852;29;20055;-90
2023/09/15 07:04:30;;;;;;;38.83;20.10;;;17.30;81.20;;;;;;4869795;29;20049;-93
2023/09/15 07:06:58;;;;;;;41.10;22.15;;;17.40;80.60;;;;;;4881052;29;20060;-92
2023/09/15 07:09:25;;;;;;;39.20;21.00;;;17.30;80.00;;;;;;4865750;29;20049;-92
2023/09/15 07:11:52;;;;;;;40.70;21.80;;;17.40;80.00;;;;;;4881487;29;20059;-92
2023/09/15 07:14:19;;;;;;;38.00;21.90;;;17.40;80.00;;;;;;4881229;29;20056;-93
2023/09/15 07:16:47;;;;;;;37.58;20.83;;;17.40;80.40;;;;;;4865908;29;20052;-94
2023/09/15 07:19:14;;;;;;;40.78;22.10;;;17.40;80.60;;;;;;4865638;29;20059;-93
2023/09/15 07:21:43;;;;;;;40.33;21.70;;;17.40;81.00;;;;;;4865785;29;20036;-93
2023/09/15 07:24:11;;;;;;;40.90;21.45;;;17.40;80.40;;;;;;4868979;29;20055;-93
2023/09/15 07:26:39;;;;;;;39.80;21.87;;;17.50;80.60;;;;;;4868779;29;20051;-92
2023/09/15 07:29:06;;;;;;;41.75;21.73;;;17.50;80.20;;;;;;4868710;29;20108;-93
2023/09/15 07:31:35;;;;;;;41.47;22.05;;;17.60;80.20;;;;;;4882395;29;20414;-89
2023/09/15 07:34:02;;;;;;;41.25;23.30;;;17.60;80.70;;;;;;4857140;29;20097;-90
2023/09/15 07:36:29;;;;;;;44.03;23.15;;;17.50;80.00;;;;;;4874244;29;20052;-89
2023/09/15 07:38:56;;;;;;;43.73;24.33;;;17.60;80.70;;;;;;4874624;29;20072;-89
2023/09/15 07:41:24;;;;;;;42.65;23.75;;;17.80;81.00;;;;;;4875779;29;20076;-90
2023/09/15 07:43:57;;;;;;;45.00;23.90;;;17.70;79.40;;;;;;4882770;29;20055;-90
2023/09/15 07:46:24;;;;;;;39.45;22.67;;;17.70;79.20;;;;;;4877265;29;20575;-90
2023/09/15 07:48:51;;;;;;;38.15;22.23;;;17.70;79.40;;;;;;4872392;29;20056;-90
2023/09/15 07:51:19;;;;;;;37.57;21.40;;;17.90;79.40;;;;;;4858522;29;20076;-88
2023/09/15 07:53:47;;;;;;;43.55;21.33;;;18.00;79.20;;;;;;4849889;29;20449;-92
2023/09/15 07:56:14;;;;;;;37.80;21.90;;;18.00;79.10;;;;;;4864803;29;20529;-92
2023/09/15 07:58:41;;;;;;;34.60;20.83;;;18.00;79.00;;;;;;4866401;29;20045;-92
2023/09/15 08:01:11;;;;;;;36.83;22.17;;;17.90;78.90;;;;;;4868127;29;20144;-91
2023/09/15 08:03:39;;;;;;;37.47;21.23;;;17.90;79.10;;;;;;4880264;29;20043;-91
2023/09/15 08:06:08;;;;;;;41.70;21.27;;;17.90;80.20;;;;;;4879965;29;20045;-92
2023/09/15 08:08:35;;;;;;;37.03;21.60;;;18.00;79.80;;;;;;4880105;29;20511;-90
2023/09/15 08:11:02;;;;;;;38.47;22.45;;;18.10;79.30;;;;;;4871538;29;20143;-91
2023/09/15 08:13:29;;;;;;;36.30;21.98;;;18.40;79.10;;;;;;4864551;29;20053;-91
2023/09/15 08:15:56;;;;;;;38.10;22.17;;;18.50;79.20;;;;;;4869312;29;20096;-91
2023/09/15 08:18:24;;;;;;;39.42;21.98;;;18.50;78.20;;;;;;4871753;29;20072;-91
2023/09/15 08:20:51;;;;;;;38.05;23.10;;;18.50;78.00;;;;;;4856396;29;20156;-90
2023/09/15 08:23:18;;;;;;;37.85;22.15;;;18.50;78.10;;;;;;4873571;29;20047;-90
2023/09/15 08:25:45;;;;;;;32.70;20.17;;;18.50;78.30;;;;;;4866937;29;20049;-88
2023/09/15 08:28:12;;;;;;;35.37;21.27;;;18.50;78.10;;;;;;4883589;29;20051;-90
2023/09/15 08:30:39;;;;;;;34.97;22.30;;;18.50;78.00;;;;;;4873499;29;20534;-89
2023/09/15 08:33:06;;;;;;;34.17;19.48;;;18.60;78.00;;;;;;4880592;29;20049;-90
2023/09/15 08:35:33;;;;;;;31.38;18.05;;;18.70;78.00;;;;;;4857843;29;20507;-90
2023/09/15 08:38:00;;;;;;;32.17;20.40;;;18.80;77.30;;;;;;4879828;29;20410;-91
2023/09/15 08:40:38;;;;;;;30.50;19.17;;;18.90;78.10;;;;;;4874662;29;20064;-89
2023/09/15 08:43:06;;;;;;;27.50;17.80;;;18.90;78.90;;;;;;4877522;29;20051;-90
2023/09/15 08:45:34;;;;;;;26.98;17.63;;;19.00;78.40;;;;;;4867174;29;20139;-93
2023/09/15 08:48:05;;;;;;;25.38;15.95;;;19.10;76.80;;;;;;4851959;29;20049;-93
2023/09/15 08:50:33;;;;;;;26.60;17.40;;;19.20;76.10;;;;;;4871764;29;20048;-92
2023/09/15 08:53:02;;;;;;;26.43;17.27;;;19.40;75.70;;;;;;4889761;29;20119;-93
2023/09/15 08:55:29;;;;;;;27.95;16.95;;;19.40;75.90;;;;;;4870032;29;20065;-93
2023/09/15 08:57:58;;;;;;;27.27;16.15;;;19.50;75.60;;;;;;4873348;29;20120;-91
2023/09/15 09:00:27;;;;;;;25.88;15.90;;;19.50;75.60;;;;;;4877044;29;20047;-94
2023/09/15 09:02:54;;;;;;;24.15;15.40;;;19.60;76.00;;;;;;4867540;29;20056;-91
2023/09/15 09:05:24;;;;;;;23.57;14.87;;;19.60;74.80;;;;;;4883099;29;20041;-93
2023/09/15 09:07:53;;;;;;;25.45;14.27;;;19.60;75.10;;;;;;4883325;29;20044;-92
2023/09/15 09:10:21;;;;;;;21.63;14.32;;;19.80;74.30;;;;;;4867130;29;20100;-91
2023/09/15 09:12:48;;;;;;;22.10;13.10;;;19.90;73.10;;;;;;4882623;29;20052;-93
2023/09/15 09:15:17;;;;;;;19.83;13.27;;;19.80;74.30;;;;;;4867240;29;20053;-91
2023/09/15 09:17:44;;;;;;;19.47;12.20;;;19.90;74.00;;;;;;4867117;29;20099;-93
2023/09/15 09:20:27;;;;;;;19.95;12.50;;;20.00;73.90;;;;;;4867099;29;20052;-92
2023/09/15 09:22:55;;;;;;;24.48;14.85;;;20.00;73.60;;;;;;4882883;29;20498;-92
2023/09/15 09:25:33;;;;;;;22.38;13.73;;;19.90;73.40;;;;;;4870793;29;20045;-92
2023/09/15 09:28:03;;;;;;;23.08;13.25;;;19.70;74.10;;;;;;4886582;29;20053;-93
2023/09/15 09:30:30;;;;;;;21.43;12.23;;;19.70;74.50;;;;;;4886541;29;20049;-92
2023/09/15 09:32:58;;;;;;;19.33;11.57;;;19.90;75.30;;;;;;4886265;29;20063;-92
2023/09/15 09:35:26;;;;;;;18.42;10.48;;;20.00;74.50;;;;;;4885825;29;20055;-91
2023/09/15 09:37:55;;;;;;;15.73;9.43;;;20.10;73.50;;;;;;4870614;29;20048;-92
2023/09/15 09:40:23;;;;;;;15.32;9.68;;;20.10;72.20;;;;;;4870533;29;20044;-92
2023/09/15 09:42:51;;;;;;;18.90;10.10;;;20.40;73.00;;;;;;4870446;29;20049;-92
2023/09/15 09:45:27;;;;;;;15.98;9.63;;;20.30;70.80;;;;;;4885708;29;20052;-93
2023/09/15 09:47:55;;;;;;;16.65;10.10;;;20.30;70.40;;;;;;4870323;29;20059;-92
2023/09/15 09:50:23;;;;;;;16.70;9.13;;;20.30;71.20;;;;;;4885587;29;20057;-92
2023/09/15 09:52:50;;;;;;;15.68;9.48;;;20.40;71.60;;;;;;4885429;29;20086;-92
2023/09/15 09:55:19;;;;;;;12.27;7.30;;;20.50;72.20;;;;;;4870370;29;20063;-92
2023/09/15 09:57:46;;;;;;;13.07;7.70;;;20.60;69.60;;;;;;4885969;29;20077;-92
2023/09/15 10:00:19;;;;;;;14.18;7.68;;;20.60;69.00;;;;;;4870261;29;20083;-93
2023/09/15 10:02:47;;;;;;;13.55;7.22;;;20.60;70.90;;;;;;4885335;29;20048;-93
2023/09/15 10:05:15;;;;;;;11.48;6.05;;;20.80;71.80;;;;;;4870145;29;20052;-92
2023/09/15 10:07:45;;;;;;;10.37;5.57;;;20.90;70.80;;;;;;4885654;29;20087;-92
2023/09/15 10:10:12;;;;;;;13.07;5.35;;;20.90;69.70;;;;;;4886194;29;20119;-93
2023/09/15 10:12:40;;;;;;;10.77;5.03;;;20.80;68.80;;;;;;4885197;29;20476;-93
2023/09/15 10:15:07;;;;;;;9.07;4.25;;;20.60;68.50;;;;;;4869829;29;20080;-92
2023/09/15 10:17:35;;;;;;;9.13;4.30;;;20.70;69.20;;;;;;4869700;29;20067;-92
2023/09/15 10:20:03;;;;;;;9.37;3.70;;;20.80;69.60;;;;;;4885285;29;20072;-93
2023/09/15 10:22:31;;;;;;;9.05;3.15;;;20.70;69.30;;;;;;4869830;29;20053;-93
2023/09/15 10:25:00;;;;;;;8.68;2.85;;;20.80;67.50;;;;;;4885027;29;20064;-91
2023/09/15 10:27:28;;;;;;;7.07;3.20;;;20.90;67.00;;;;;;4869729;29;20044;-92
2023/09/15 10:30:04;;;;;;;9.02;3.30;;;21.00;67.40;;;;;;4884829;29;20060;-91
2023/09/15 10:32:39;;;;;;;5.27;2.47;;;21.00;67.00;;;;;;4884721;29;20059;-92
2023/09/15 10:35:08;;;;;;;8.82;2.83;;;21.00;66.20;;;;;;4884401;29;20428;-92
2023/09/15 10:37:41;;;;;;;6.47;2.92;;;21.00;66.60;;;;;;4869859;29;20075;-93
2023/09/15 10:40:10;;;;;;;7.88;2.88;;;21.00;66.30;;;;;;4869949;29;20049;-92
2023/09/15 10:42:49;;;;;;;7.15;2.60;;;21.00;65.60;;;;;;4884863;29;20049;-92
2023/09/15 10:45:16;;;;;;;7.00;2.80;;;21.10;66.40;;;;;;4869230;29;20068;-92
2023/09/15 10:47:55;;;;;;;7.78;2.80;;;21.20;65.50;;;;;;4884491;29;20049;-92
2023/09/15 10:50:39;;;;;;;5.97;2.30;;;21.30;67.10;;;;;;4884660;29;20053;-92
2023/09/15 10:53:11;;;;;;;6.53;2.53;;;21.40;65.50;;;;;;4885096;29;20108;-92
2023/09/15 10:55:40;;;;;;;6.70;2.58;;;21.30;66.00;;;;;;4885144;29;20151;-93
2023/09/15 10:58:09;;;;;;;5.40;1.90;;;21.30;64.50;;;;;;4869154;29;20052;-92
2023/09/15 11:00:38;;;;;;;6.80;2.15;;;21.30;63.90;;;;;;4884160;29;20105;-92
2023/09/15 11:03:06;;;;;;;5.13;2.08;;;21.20;65.30;;;;;;4884288;29;20049;-93
2023/09/15 11:05:35;;;;;;;5.43;2.33;;;21.10;63.70;;;;;;4884648;29;20053;-92
2023/09/15 11:08:04;;;;;;;6.57;2.10;;;21.10;65.20;;;;;;4868865;29;20049;-93
2023/09/15 11:10:32;;;;;;;5.20;1.90;;;21.10;63.70;;;;;;4884215;29;20052;-93
2023/09/15 11:13:03;;;;;;;6.80;1.95;;;21.10;63.70;;;;;;4869059;29;20419;-93
2023/09/15 11:15:31;;;;;;;6.22;2.10;;;21.10;63.90;;;;;;4884791;29;20060;-93
2023/09/15 11:17:59;;;;;;;4.82;1.85;;;21.10;63.10;;;;;;4884116;29;20074;-92
2023/09/15 11:20:27;;;;;;;4.72;1.90;;;21.10;62.90;;;;;;4884019;29;20564;-93
2023/09/15 11:22:55;;;;;;;5.13;1.70;;;21.20;64.70;;;;;;4884177;29;20144;-91
2023/09/15 11:25:23;;;;;;;3.92;1.60;;;21.60;63.60;;;;;;4868621;29;20380;-92
2023/09/15 11:27:50;;;;;;;5.95;1.77;;;21.80;62.00;;;;;;4883972;29;20139;-93
2023/09/15 11:30:18;;;;;;;4.80;1.50;;;21.90;63.00;;;;;;4868415;29;20079;-93
2023/09/15 11:32:45;;;;;;;7.28;2.10;;;21.90;62.30;;;;;;4884063;29;20089;-92
2023/09/15 11:35:12;;;;;;;5.23;1.70;;;21.60;61.60;;;;;;4868472;29;20048;-92
2023/09/15 11:37:41;;;;;;;6.82;1.73;;;21.60;63.60;;;;;;4868197;29;20044;-91
2023/09/15 11:40:19;;;;;;;5.32;1.70;;;21.70;62.60;;;;;;4868119;29;20053;-94
2023/09/15 11:42:59;;;;;;;4.45;1.52;;;21.90;60.50;;;;;;4868403;29;20048;-92
2023/09/15 11:45:28;;;;;;;3.55;1.30;;;22.00;60.20;;;;;;4883567;29;20535;-94
2023/09/15 11:47:58;;;;;;;5.63;1.53;;;22.00;60.80;;;;;;4868216;29;20507;-92
2023/09/15 11:50:27;;;;;;;4.55;1.30;;;22.10;63.60;;;;;;4884265;29;20484;-93
2023/09/15 11:52:54;;;;;;;4.22;1.50;;;22.00;61.90;;;;;;4868781;29;20049;-93
2023/09/15 11:55:23;;;;;;;5.15;1.55;;;22.00;60.10;;;;;;4884246;29;20052;-93
2023/09/15 11:57:51;;;;;;;3.28;1.35;;;21.90;60.10;;;;;;4883598;29;20054;-93
2023/09/15 12:00:21;;;;;;;6.30;1.43;;;21.80;60.70;;;;;;4868333;29;20050;-93
2023/09/15 12:02:49;;;;;;;4.57;1.50;;;21.70;62.00;;;;;;4868192;29;20041;-93
2023/09/15 12:05:20;;;;;;;4.82;1.45;;;21.60;61.90;;;;;;4883707;29;20135;-93
2023/09/15 12:07:47;;;;;;;4.95;1.50;;;21.50;60.90;;;;;;4883413;29;20049;-92
2023/09/15 12:10:21;;;;;;;4.18;1.60;;;21.40;61.70;;;;;;4867904;29;20049;-92
2023/09/15 12:12:49;;;;;;;5.40;1.37;;;21.40;62.00;;;;;;4867989;29;20448;-93
2023/09/15 12:15:17;;;;;;;4.88;1.55;;;21.60;62.50;;;;;;4868300;29;20052;-92
2023/09/15 12:17:45;;;;;;;6.75;2.35;;;21.60;62.00;;;;;;4883981;29;20045;-93
2023/09/15 12:20:13;;;;;;;5.65;2.00;;;21.60;61.70;;;;;;4867515;29;20075;-94
2023/09/15 12:22:42;;;;;;;4.80;2.03;;;21.70;61.10;;;;;;4883189;29;20076;-93
2023/09/15 12:25:16;;;;;;;4.20;2.00;;;21.70;59.50;;;;;;4867583;29;20056;-93
2023/09/15 12:27:43;;;;;;;3.83;1.90;;;21.80;58.80;;;;;;4883145;29;20044;-92
2023/09/15 12:30:12;;;;;;;4.93;1.90;;;21.80;59.10;;;;;;4867468;29;20407;-93
2023/09/15 12:32:39;;;;;;;4.60;1.70;;;22.00;59.30;;;;;;4867570;29;20104;-94
2023/09/15 12:35:11;;;;;;;4.28;1.77;;;22.10;59.80;;;;;;4867591;29;20100;-93
2023/09/15 12:37:44;;;;;;;4.83;2.10;;;22.20;59.90;;;;;;4868065;29;20052;-92
2023/09/15 12:40:12;;;;;;;4.72;1.77;;;22.10;59.80;;;;;;4883573;29;20100;-92
2023/09/15 12:42:41;;;;;;;3.78;1.90;;;22.10;59.10;;;;;;4867885;29;20060;-93